Share

Zacatecas, México

Gen Leobardo C Ruiz International (MMZC) Alt 7139 ft | 22.90 °N, 102.69 °W | Change Station

Current weather conditions updated 40 minutes ago

Scattered Clouds
Nubes dispersas
48 ° F
Sensación térmica 48 ° F
N
0
Viento Variable Viento desde Norte
Amanecer 7:25 AM
Atardecer 8:12 PM
Luna Gibosa menguante

Hoy se prevé una temperatura muy similar a la de ayer.

Presión 30.33 pul
Visibilidad 10.0 Millas
Nubes Nubes dispersas 20000 ft
Punto de rocío 34 ° F
Humedad 58%
Precipitaciones 0.00 pul
Espesor de la nieve No disponible.
UV 0 de una escala de 16
Polen No disponible.
Calidad del aire No disponible.
Flu Activity No disponible.
METAR MMZC 201241Z 00000KT 10SM SCT200 09/01 A3033 RMK 8/005 HZY

More Conditions Fewer Conditions

Presión 30.33 pul
Visibilidad 10.0 Millas
Nubes Nubes dispersas 20000 ft
Punto de rocío 34 ° F
Humedad 58%
Precipitaciones 0.00 pul
Espesor de la nieve No disponible.
UV 0 de una escala de 16
Polen No disponible.
Calidad del aire No disponible.
Flu Activity No disponible.
METAR MMZC 201241Z 00000KT 10SM SCT200 09/01 A3033 RMK 8/005 HZY

More Conditions Fewer Conditions

10-Day Weather Forecast

Almanac

Astronomía

Apr. 20, 2014 Salida Puesta
Hora real 7:25 AM CDT 8:12 PM CDT
Crepúsculo civil 7:02 AM CDT 8:36 PM CDT
Crepúsculo náutico 6:35 AM CDT 9:03 PM CDT
Crepúsculo astronómico 6:07 AM CDT 9:30 PM CDT
Luna 12:40 AM CDT 12:01 PM CDT
Horas de luz 13h 33m
Horas de luz
12h 47m
Tomorrow will be 1m 13s longer.
Gibosa menguante, 70% of the Moon is Illuminated
Hoy
Gibosa menguante
Abr 22
Cuarto menguante
Abr 29
Nueva
May 6
Cuarto creciente
May 14
Luna llena

Extremos de ayer

Máximos del país Bajas del país

Community

  • Happy Easter
    Happy Easter
  • EARLY FOGGY MORNING
    EARLY FOGGY MORNING
  • Easter Greetings
    Easter Greetings
  • Sunny day at the coast-Cape Arago Lighthouse
    Sunny day at the coast-Cape Arago Lighthouse
  • Cherry Blossoms
    Cherry Blossoms

WunderPhotos

Upload Photos

1,703,205 ¡fotos cargadas!

Nearby

Calidad del aire

Not available.

Grosos de nieve

Not available.

Temperaturas de aguas costeras

Lugar Temperatura
Sin partes meteorológicos de las estaciones

Actividad de terremotos

Ciudad Distance Mag. Tiempo y dato
No hay informes recientes de la actividad sísmica.
Magnitud mínima muestra es 2,5.

Estaciones meteorológicas cercanas

No hay estaciones meteorológicas personales en esta zona.

What do you think?

We're not finished. Please let us know what you like, what you don't like, and what you are still missing.